Aviation Digital Data Service (ADDS)

Output produced by METARs form (0646 UTC 24 September 2017)
found at http://aviationweather.gov/adds/metars/
 
KOEO 240635Z AUTO 00000KT 10SM CLR 20/18 A2998 RMK AO2 T02040177